createdAt,value
2022-09-23T00:00:43.399Z,61.12
2022-09-23T00:01:43.474Z,61.12
2022-09-23T00:02:43.448Z,61.12
2022-09-23T00:03:43.357Z,61.12
2022-09-23T00:04:43.370Z,61.12
2022-09-23T00:05:43.331Z,61.15
2022-09-23T00:06:43.318Z,61.23
2022-09-23T00:07:43.307Z,61.25
2022-09-23T00:08:43.292Z,61.25
2022-09-23T00:09:43.279Z,61.25
2022-09-23T00:10:43.267Z,61.25
2022-09-23T00:11:43.251Z,61.15
2022-09-23T00:12:43.240Z,61.25
2022-09-23T00:13:43.227Z,61.25
2022-09-23T00:14:43.266Z,61.15
2022-09-23T00:15:43.198Z,61.23
2022-09-23T00:16:43.294Z,61.15
2022-09-23T00:17:43.171Z,61.15
2022-09-23T00:18:43.163Z,61.25
2022-09-23T00:19:43.146Z,61.25
2022-09-23T00:20:43.159Z,61.25
2022-09-23T00:21:43.118Z,61.25
2022-09-23T00:22:43.108Z,61.25
2022-09-23T00:23:43.096Z,61.25
2022-09-23T00:24:43.080Z,61.25
2022-09-23T00:25:43.068Z,61.25
2022-09-23T00:26:43.055Z,61.25
2022-09-23T00:27:43.041Z,61.25
2022-09-23T00:28:43.031Z,61.25
2022-09-23T00:29:43.014Z,61.25
2022-09-23T00:30:43.023Z,61.25
2022-09-23T00:31:42.990Z,61.25
2022-09-23T00:32:42.976Z,61.25
2022-09-23T00:33:42.964Z,61.25
2022-09-23T00:34:42.951Z,61.25
2022-09-23T00:35:42.937Z,61.25
2022-09-23T00:36:42.998Z,61.25
2022-09-23T00:37:42.909Z,61.25
2022-09-23T00:38:42.905Z,61.25
2022-09-23T00:39:42.884Z,61.25
2022-09-23T00:40:42.931Z,61.25
2022-09-23T00:41:42.857Z,61.25
2022-09-23T00:42:42.847Z,61.25
2022-09-23T00:43:42.832Z,61.25
2022-09-23T00:44:42.827Z,61.25
2022-09-23T00:45:42.855Z,61.35
2022-09-23T00:46:42.795Z,61.25
2022-09-23T00:47:42.781Z,61.25
2022-09-23T00:48:42.770Z,61.25
2022-09-23T00:49:42.753Z,61.35
2022-09-23T00:50:42.741Z,61.35
2022-09-23T00:51:42.731Z,61.35
2022-09-23T00:52:42.741Z,61.35
2022-09-23T00:53:42.703Z,61.35
2022-09-23T00:54:42.691Z,61.25
2022-09-23T00:55:42.676Z,61.35
2022-09-23T00:56:42.663Z,61.35
2022-09-23T00:57:42.649Z,61.25
2022-09-23T00:58:42.639Z,61.35
2022-09-23T00:59:42.623Z,61.25
2022-09-23T01:00:42.612Z,61.25
2022-09-23T01:01:42.677Z,61.25
2022-09-23T01:02:42.646Z,61.35
2022-09-23T01:03:42.570Z,61.35
2022-09-23T01:04:42.560Z,61.35
2022-09-23T01:05:42.546Z,61.35
2022-09-23T01:06:42.532Z,61.35
2022-09-23T01:07:42.521Z,61.35
2022-09-23T01:08:42.528Z,61.35
2022-09-23T01:09:42.493Z,61.35
2022-09-23T01:10:42.480Z,61.35
2022-09-23T01:11:42.471Z,61.35
2022-09-23T01:12:42.454Z,61.35
2022-09-23T01:13:42.442Z,61.35
2022-09-23T01:14:42.426Z,61.35
2022-09-23T01:15:42.415Z,61.35
2022-09-23T01:16:42.440Z,61.35
2022-09-23T01:17:42.390Z,61.35
2022-09-23T01:18:42.375Z,61.35
2022-09-23T01:19:42.366Z,61.35
2022-09-23T01:20:42.350Z,61.35
2022-09-23T01:21:42.338Z,61.35
2022-09-23T01:22:42.322Z,61.35
2022-09-23T01:23:42.310Z,61.35
2022-09-23T01:24:42.319Z,61.35
2022-09-23T01:25:42.286Z,61.35
2022-09-23T01:26:42.270Z,61.35
2022-09-23T01:27:42.264Z,61.46
2022-09-23T01:28:42.245Z,61.35
2022-09-23T01:29:42.234Z,61.35
2022-09-23T01:30:48.306Z,61.35
2022-09-23T01:31:42.207Z,61.35
2022-09-23T01:32:42.193Z,61.35
2022-09-23T01:33:42.182Z,61.35
2022-09-23T01:34:42.166Z,61.46
2022-09-23T01:35:42.154Z,61.35
2022-09-23T01:36:42.139Z,61.46
2022-09-23T01:37:42.130Z,61.46
2022-09-23T01:38:42.113Z,61.46
2022-09-23T01:39:42.102Z,61.46
2022-09-23T01:40:42.167Z,61.46
2022-09-23T01:41:42.076Z,61.46
2022-09-23T01:42:42.061Z,61.46
2022-09-23T01:43:42.051Z,61.46
2022-09-23T01:44:42.037Z,61.46
2022-09-23T01:45:42.024Z,61.46
2022-09-23T01:46:42.011Z,61.46
2022-09-23T01:47:42.002Z,61.46
2022-09-23T01:48:42.091Z,61.46
2022-09-23T01:49:41.973Z,61.46
2022-09-23T01:50:47.965Z,61.46
2022-09-23T01:51:41.948Z,61.46
2022-09-23T01:52:41.931Z,61.46
2022-09-23T01:53:41.921Z,61.46
2022-09-23T01:54:41.905Z,61.46
2022-09-23T01:55:41.895Z,61.46
2022-09-23T01:56:41.903Z,61.46
2022-09-23T01:57:41.868Z,61.46
2022-09-23T01:58:41.854Z,61.46
2022-09-23T01:59:41.842Z,61.46
2022-09-23T02:00:41.827Z,61.56
2022-09-23T02:01:41.889Z,61.46
2022-09-23T02:02:41.849Z,61.46
2022-09-23T02:03:41.789Z,61.46
2022-09-23T02:04:41.777Z,61.46
2022-09-23T02:05:41.763Z,61.46
2022-09-23T02:06:41.748Z,61.46
2022-09-23T02:07:41.737Z,61.46
2022-09-23T02:08:41.725Z,61.46
2022-09-23T02:09:41.712Z,61.46
2022-09-23T02:10:41.698Z,61.46
2022-09-23T02:11:41.684Z,61.46
2022-09-23T02:12:41.696Z,61.46
2022-09-23T02:13:41.658Z,61.46
2022-09-23T02:14:41.644Z,61.46
2022-09-23T02:15:41.633Z,61.46
2022-09-23T02:16:41.645Z,61.46
2022-09-23T02:17:41.607Z,61.46
2022-09-23T02:18:41.594Z,61.46
2022-09-23T02:19:41.581Z,61.46
2022-09-23T02:20:41.566Z,61.46
2022-09-23T02:21:41.555Z,61.56
2022-09-23T02:22:41.542Z,61.56
2022-09-23T02:23:41.527Z,61.56
2022-09-23T02:24:41.522Z,61.46
2022-09-23T02:25:41.502Z,61.56
2022-09-23T02:26:41.487Z,61.56
2022-09-23T02:27:41.476Z,61.56
2022-09-23T02:28:41.486Z,61.56
2022-09-23T02:29:41.448Z,61.56
2022-09-23T02:30:41.435Z,61.56
2022-09-23T02:31:41.482Z,61.56
2022-09-23T02:32:41.409Z,61.56
2022-09-23T02:33:41.399Z,61.56
2022-09-23T02:34:41.382Z,61.56
2022-09-23T02:35:41.372Z,61.46
2022-09-23T02:36:41.357Z,61.56
2022-09-23T02:37:41.346Z,61.59
2022-09-23T02:38:41.330Z,61.59
2022-09-23T02:39:41.320Z,61.56
2022-09-23T02:40:41.327Z,61.59
2022-09-23T02:41:41.292Z,61.59
2022-09-23T02:42:41.280Z,61.56
2022-09-23T02:43:41.267Z,61.59
2022-09-23T02:44:41.279Z,61.59
2022-09-23T02:45:41.273Z,61.56
2022-09-23T02:46:41.227Z,61.69
2022-09-23T02:47:41.216Z,61.59
2022-09-23T02:48:41.201Z,61.59
2022-09-23T02:49:41.191Z,61.59
2022-09-23T02:50:41.182Z,61.59
2022-09-23T02:51:41.165Z,61.59
2022-09-23T02:52:41.149Z,61.59
2022-09-23T02:53:41.136Z,61.59
2022-09-23T02:54:41.122Z,61.59
2022-09-23T02:55:41.112Z,61.59
2022-09-23T02:56:41.097Z,61.59
2022-09-23T02:57:41.086Z,61.59
2022-09-23T02:58:41.074Z,61.59
2022-09-23T02:59:41.060Z,61.59
2022-09-23T03:00:41.069Z,61.59
2022-09-23T03:01:41.088Z,61.69
2022-09-23T03:02:41.091Z,61.59
2022-09-23T03:03:41.006Z,61.59
2022-09-23T03:04:40.993Z,61.69
2022-09-23T03:05:40.983Z,61.69
2022-09-23T03:06:40.967Z,61.69
2022-09-23T03:07:47.113Z,61.69
2022-09-23T03:08:40.942Z,61.69
2022-09-23T03:09:40.933Z,61.69
2022-09-23T03:10:40.916Z,61.69
2022-09-23T03:11:40.904Z,61.69
2022-09-23T03:12:40.891Z,61.69
2022-09-23T03:13:40.877Z,61.69
2022-09-23T03:14:40.863Z,61.59
2022-09-23T03:15:40.850Z,61.59
2022-09-23T03:16:40.932Z,61.59
2022-09-23T03:17:40.825Z,61.59
2022-09-23T03:18:40.812Z,61.59
2022-09-23T03:19:40.800Z,61.69
2022-09-23T03:20:40.785Z,61.69
2022-09-23T03:21:40.773Z,61.69
2022-09-23T03:22:40.758Z,61.69
2022-09-23T03:23:40.757Z,61.69
2022-09-23T03:24:40.733Z,61.69
2022-09-23T03:25:40.721Z,61.69
2022-09-23T03:26:40.706Z,61.69
2022-09-23T03:27:40.698Z,61.69
2022-09-23T03:28:40.680Z,61.69
2022-09-23T03:29:40.671Z,61.69
2022-09-23T03:30:40.655Z,61.69
2022-09-23T03:31:40.746Z,61.69
2022-09-23T03:32:40.714Z,61.69
2022-09-23T03:33:40.618Z,61.69
2022-09-23T03:34:40.604Z,61.69
2022-09-23T03:35:40.592Z,61.79
2022-09-23T03:36:40.577Z,61.79
2022-09-23T03:37:40.566Z,61.69
2022-09-23T03:38:40.552Z,61.79
2022-09-23T03:39:40.541Z,61.79
2022-09-23T03:40:40.588Z,61.79
2022-09-23T03:41:40.514Z,61.79
2022-09-23T03:42:40.500Z,61.79
2022-09-23T03:43:40.490Z,61.79
2022-09-23T03:44:40.476Z,61.79
2022-09-23T03:45:40.511Z,61.79
2022-09-23T03:46:40.449Z,61.79
2022-09-23T03:47:40.439Z,61.79
2022-09-23T03:48:40.538Z,61.79
2022-09-23T03:49:40.411Z,61.79
2022-09-23T03:50:40.396Z,61.79
2022-09-23T03:51:44.378Z,61.79
2022-09-23T03:52:40.369Z,61.79
2022-09-23T03:53:40.358Z,61.79
2022-09-23T03:54:40.344Z,61.79
2022-09-23T03:55:40.332Z,61.79
2022-09-23T03:56:40.319Z,61.79
2022-09-23T03:57:40.306Z,61.79
2022-09-23T03:58:40.290Z,61.79
2022-09-23T03:59:40.280Z,61.79
2022-09-23T04:00:40.335Z,61.79
2022-09-23T04:01:40.313Z,61.79
2022-09-23T04:02:40.239Z,61.79
2022-09-23T04:03:40.230Z,61.79
2022-09-23T04:04:40.248Z,61.79
2022-09-23T04:05:40.202Z,61.79
2022-09-23T04:06:40.187Z,61.79
2022-09-23T04:07:40.179Z,61.79
2022-09-23T04:08:40.165Z,61.79
2022-09-23T04:09:40.167Z,61.79
2022-09-23T04:10:40.137Z,61.79
2022-09-23T04:11:40.124Z,61.79
2022-09-23T04:12:40.110Z,61.79
2022-09-23T04:13:40.098Z,61.79
2022-09-23T04:14:40.083Z,61.79
2022-09-23T04:15:40.073Z,61.79
2022-09-23T04:16:40.152Z,61.79
2022-09-23T04:17:40.051Z,61.79
2022-09-23T04:18:40.032Z,61.79
2022-09-23T04:19:40.022Z,61.79
2022-09-23T04:20:40.029Z,61.79
2022-09-23T04:21:39.995Z,61.79
2022-09-23T04:22:39.979Z,61.79
2022-09-23T04:23:39.970Z,61.79
2022-09-23T04:24:39.953Z,61.79
2022-09-23T04:25:39.944Z,61.79
2022-09-23T04:26:39.932Z,61.79
2022-09-23T04:27:39.917Z,61.79
2022-09-23T04:28:45.910Z,61.79
2022-09-23T04:29:39.891Z,61.79
2022-09-23T04:30:39.877Z,61.79
2022-09-23T04:31:39.957Z,61.79
2022-09-23T04:32:39.851Z,61.79
2022-09-23T04:33:39.840Z,61.79
2022-09-23T04:34:39.824Z,61.79
2022-09-23T04:35:40.452Z,61.79
2022-09-23T04:36:39.829Z,61.79
2022-09-23T04:37:39.791Z,61.79
2022-09-23T04:38:39.772Z,61.79
2022-09-23T04:39:39.763Z,61.79
2022-09-23T04:40:39.839Z,61.79
2022-09-23T04:41:39.736Z,61.79
2022-09-23T04:42:39.722Z,61.79
2022-09-23T04:43:39.718Z,61.79
2022-09-23T04:44:39.698Z,61.79
2022-09-23T04:45:39.684Z,61.79
2022-09-23T04:46:39.739Z,61.79
2022-09-23T04:47:39.657Z,61.79
2022-09-23T04:48:39.644Z,61.79
2022-09-23T04:49:39.630Z,61.79
2022-09-23T04:50:39.617Z,61.79
2022-09-23T04:51:39.606Z,61.79
2022-09-23T04:52:39.615Z,61.79
2022-09-23T04:53:39.579Z,61.79
2022-09-23T04:54:39.565Z,61.79
2022-09-23T04:55:39.553Z,61.79
2022-09-23T04:56:39.542Z,61.79
2022-09-23T04:57:39.526Z,61.79
2022-09-23T04:58:39.525Z,61.79
2022-09-23T04:59:39.507Z,61.79
2022-09-23T05:00:39.542Z,61.79
2022-09-23T05:01:39.612Z,61.79
2022-09-23T05:02:39.521Z,61.79
2022-09-23T05:03:39.451Z,61.79
2022-09-23T05:04:39.435Z,61.79
2022-09-23T05:05:39.424Z,61.79
2022-09-23T05:06:39.410Z,61.79
2022-09-23T05:07:39.398Z,61.79
2022-09-23T05:08:39.409Z,61.69
2022-09-23T05:09:39.372Z,61.69
2022-09-23T05:10:39.363Z,61.79
2022-09-23T05:11:39.346Z,61.59
2022-09-23T05:12:39.331Z,61.48
2022-09-23T05:13:39.319Z,61.48
2022-09-23T05:14:39.306Z,61.48
2022-09-23T05:15:39.294Z,61.48
2022-09-23T05:16:39.360Z,61.38
2022-09-23T05:17:39.269Z,61.38
2022-09-23T05:18:39.256Z,61.38
2022-09-23T05:19:39.242Z,61.38
2022-09-23T05:20:39.227Z,61.28
2022-09-23T05:21:39.219Z,61.28
2022-09-23T05:22:39.202Z,61.38
2022-09-23T05:23:39.190Z,61.38
2022-09-23T05:24:39.201Z,61.28
2022-09-23T05:25:39.162Z,61.18
2022-09-23T05:26:39.151Z,61.08
2022-09-23T05:27:39.136Z,61.18
2022-09-23T05:28:39.125Z,61.18
2022-09-23T05:29:39.111Z,61.08
2022-09-23T05:30:39.107Z,60.88
2022-09-23T05:31:39.135Z,60.88
2022-09-23T05:32:39.072Z,60.88
2022-09-23T05:33:39.058Z,60.98
2022-09-23T05:34:39.047Z,61.08
2022-09-23T05:35:39.034Z,61.08
2022-09-23T05:36:39.395Z,60.98
2022-09-23T05:37:39.010Z,60.98
2022-09-23T05:38:38.995Z,60.98
2022-09-23T05:39:38.981Z,60.98
2022-09-23T05:40:39.073Z,60.98
2022-09-23T05:41:38.954Z,61.18
2022-09-23T05:42:38.943Z,60.88
2022-09-23T05:43:38.929Z,60.98
2022-09-23T05:44:38.917Z,60.98
2022-09-23T05:45:38.909Z,61.08
2022-09-23T05:46:39.002Z,60.98
2022-09-23T05:47:38.877Z,60.88
2022-09-23T05:48:38.867Z,60.98
2022-09-23T05:49:58.782Z,60.88
2022-09-23T05:50:39.877Z,60.88
2022-09-23T05:51:38.847Z,60.98
2022-09-23T05:52:38.814Z,60.98
2022-09-23T05:53:38.799Z,60.98
2022-09-23T05:54:38.786Z,60.98
2022-09-23T05:55:38.773Z,60.98
2022-09-23T05:56:38.787Z,60.98
2022-09-23T05:57:38.749Z,60.88
2022-09-23T05:58:38.734Z,60.88
2022-09-23T05:59:38.721Z,60.88
2022-09-23T06:00:38.710Z,60.88
2022-09-23T06:01:38.889Z,60.88
2022-09-23T06:02:38.733Z,60.88
2022-09-23T06:03:38.682Z,60.77
2022-09-23T06:04:38.658Z,60.77
2022-09-23T06:05:38.643Z,60.88
2022-09-23T06:06:38.644Z,60.88
2022-09-23T06:07:38.617Z,60.88
2022-09-23T06:08:38.606Z,60.88
2022-09-23T06:09:38.592Z,60.88
2022-09-23T06:10:38.584Z,60.67
2022-09-23T06:11:38.567Z,60.77
2022-09-23T06:12:38.579Z,60.67
2022-09-23T06:13:38.540Z,60.77
2022-09-23T06:14:38.531Z,60.88
2022-09-23T06:15:38.521Z,60.88
2022-09-23T06:16:38.502Z,60.88
2022-09-23T06:17:38.487Z,60.77
2022-09-23T06:18:38.476Z,61.08
2022-09-23T06:19:38.463Z,60.77
2022-09-23T06:20:38.449Z,60.88
2022-09-23T06:21:38.436Z,60.98
2022-09-23T06:22:40.131Z,60.98
2022-09-23T06:23:41.044Z,61.08
2022-09-23T06:24:38.397Z,60.98
2022-09-23T06:25:38.393Z,61.08
2022-09-23T06:26:38.390Z,61.08
2022-09-23T06:27:38.363Z,60.88
2022-09-23T06:28:38.370Z,60.57
2022-09-23T06:29:38.332Z,60.27
2022-09-23T06:30:38.320Z,60.36
2022-09-23T06:31:38.400Z,60.27
2022-09-23T06:32:38.293Z,60.16
2022-09-23T06:33:38.280Z,60.77
2022-09-23T06:34:50.273Z,60.36
2022-09-23T06:35:39.483Z,60.27
2022-09-23T06:36:43.858Z,60.57
2022-09-23T06:37:39.274Z,60.88
2022-09-23T06:38:38.217Z,60.88
2022-09-23T06:39:38.203Z,60.88
2022-09-23T06:40:38.294Z,60.57
2022-09-23T06:41:38.176Z,60.36
2022-09-23T06:42:38.164Z,60.36
2022-09-23T06:43:38.150Z,60.47
2022-09-23T06:44:38.164Z,60.88
2022-09-23T06:45:38.124Z,60.98
2022-09-23T06:46:38.257Z,60.98
2022-09-23T06:47:38.098Z,60.88
2022-09-23T06:48:40.776Z,60.47
2022-09-23T06:49:38.071Z,60.27
2022-09-23T06:50:38.061Z,60.16
2022-09-23T06:51:38.045Z,59.96
2022-09-23T06:52:38.042Z,59.96
2022-09-23T06:53:38.019Z,59.96
2022-09-23T06:54:38.007Z,59.86
2022-09-23T06:55:37.995Z,60.16
2022-09-23T06:56:39.742Z,60.27
2022-09-23T06:57:37.968Z,60.36
2022-09-23T06:58:37.959Z,60.16
2022-09-23T06:59:37.943Z,60.07
2022-09-23T07:00:37.954Z,60.16
2022-09-23T07:01:38.078Z,60.07
2022-09-23T07:02:38.048Z,60.07
2022-09-23T07:03:37.890Z,60.16
2022-09-23T07:04:37.889Z,60.16
2022-09-23T07:05:37.865Z,60.07
2022-09-23T07:06:37.852Z,59.76
2022-09-23T07:07:37.838Z,59.55
2022-09-23T07:08:37.826Z,59.66
2022-09-23T07:09:37.812Z,59.76
2022-09-23T07:10:37.802Z,59.86
2022-09-23T07:11:37.799Z,59.96
2022-09-23T07:12:37.775Z,60.07
2022-09-23T07:13:37.761Z,60.07
2022-09-23T07:14:37.749Z,59.96
2022-09-23T07:15:37.750Z,59.96
2022-09-23T07:16:37.747Z,59.76
2022-09-23T07:17:37.709Z,59.73
2022-09-23T07:18:37.856Z,59.76
2022-09-23T07:19:37.683Z,59.53
2022-09-23T07:20:43.677Z,59.55
2022-09-23T07:21:37.658Z,59.42
2022-09-23T07:22:37.651Z,59.42
2022-09-23T07:23:37.634Z,59.42
2022-09-23T07:24:37.619Z,59.53
2022-09-23T07:25:37.605Z,59.42
2022-09-23T07:26:40.171Z,59.53
2022-09-23T07:27:37.578Z,59.63
2022-09-23T07:28:37.568Z,59.66
2022-09-23T07:29:45.917Z,59.73
2022-09-23T07:30:39.578Z,59.63
2022-09-23T07:31:39.981Z,59.73
2022-09-23T07:32:47.121Z,59.73
2022-09-23T07:33:38.642Z,59.83
2022-09-23T07:34:37.499Z,59.86
2022-09-23T07:35:37.477Z,59.83
2022-09-23T07:36:37.679Z,59.93
2022-09-23T07:37:37.454Z,59.83
2022-09-23T07:38:41.507Z,59.73
2022-09-23T07:39:38.465Z,59.73
2022-09-23T07:40:37.506Z,59.63
2022-09-23T07:41:37.399Z,59.63
2022-09-23T07:42:37.387Z,59.63
2022-09-23T07:43:37.373Z,59.42
2022-09-23T07:44:37.361Z,59.53
2022-09-23T07:45:37.347Z,59.42
2022-09-23T07:46:37.480Z,59.33
2022-09-23T07:47:37.321Z,59.33
2022-09-23T07:48:37.332Z,59.33
2022-09-23T07:49:37.294Z,59.33
2022-09-23T07:50:37.284Z,59.22
2022-09-23T07:51:37.267Z,59.22
2022-09-23T07:52:37.257Z,59.22
2022-09-23T07:53:37.245Z,59.12
2022-09-23T07:54:37.231Z,59.12
2022-09-23T07:55:37.216Z,59.22
2022-09-23T07:56:37.206Z,59.22
2022-09-23T07:57:37.191Z,59.33
2022-09-23T07:58:37.180Z,59.33
2022-09-23T07:59:37.168Z,59.33
2022-09-23T08:00:37.158Z,59.33
2022-09-23T08:01:37.188Z,59.33
2022-09-23T08:02:37.196Z,59.33
2022-09-23T08:03:37.113Z,59.33
2022-09-23T08:04:37.126Z,59.33
2022-09-23T08:05:37.088Z,59.33
2022-09-23T08:06:37.075Z,59.22
2022-09-23T08:07:37.062Z,59.12
2022-09-23T08:08:37.050Z,59.22
2022-09-23T08:09:37.036Z,59.22
2022-09-23T08:10:37.024Z,59.22
2022-09-23T08:11:37.009Z,59.22
2022-09-23T08:12:37.001Z,59.12
2022-09-23T08:13:36.982Z,59.12
2022-09-23T08:14:36.971Z,59.12
2022-09-23T08:15:36.993Z,59.12
2022-09-23T08:16:36.946Z,59.02
2022-09-23T08:17:36.931Z,59.12
2022-09-23T08:18:36.923Z,59.12
2022-09-23T08:19:36.904Z,59.12
2022-09-23T08:20:36.920Z,59.12
2022-09-23T08:21:36.888Z,59.22
2022-09-23T08:22:36.867Z,59.12
2022-09-23T08:23:36.855Z,59.12
2022-09-23T08:24:36.868Z,59.12
2022-09-23T08:25:36.827Z,59.12
2022-09-23T08:26:36.836Z,59.12
2022-09-23T08:27:36.801Z,59.12
2022-09-23T08:28:36.789Z,59.12
2022-09-23T08:29:36.774Z,59.02
2022-09-23T08:30:36.919Z,59.12
2022-09-23T08:31:36.749Z,59.02
2022-09-23T08:32:36.736Z,59.02
2022-09-23T08:33:36.722Z,59.12
2022-09-23T08:34:36.715Z,59.12
2022-09-23T08:35:36.695Z,59.02
2022-09-23T08:36:36.720Z,59.02
2022-09-23T08:37:36.669Z,59.02
2022-09-23T08:38:36.658Z,59.12
2022-09-23T08:39:36.643Z,59.12
2022-09-23T08:40:36.684Z,59.12
2022-09-23T08:41:36.617Z,58.99
2022-09-23T08:42:36.607Z,58.89
2022-09-23T08:43:36.591Z,58.69
2022-09-23T08:44:36.579Z,58.79
2022-09-23T08:45:36.566Z,58.79
2022-09-23T08:46:36.607Z,58.69
2022-09-23T08:47:36.540Z,58.69
2022-09-23T08:48:36.528Z,58.59
2022-09-23T08:49:36.517Z,58.59
2022-09-23T08:50:36.500Z,58.59
2022-09-23T08:51:36.486Z,58.59
2022-09-23T08:52:36.500Z,58.59
2022-09-23T08:53:36.462Z,58.69
2022-09-23T08:54:36.449Z,58.69
2022-09-23T08:55:36.435Z,58.69
2022-09-23T08:56:36.423Z,58.59
2022-09-23T08:57:36.408Z,58.59
2022-09-23T08:58:36.399Z,58.59
2022-09-23T08:59:36.384Z,58.59
2022-09-23T09:00:36.371Z,58.59
2022-09-23T09:01:36.448Z,58.69
2022-09-23T09:02:36.382Z,58.69
2022-09-23T09:03:36.331Z,58.69
2022-09-23T09:04:36.319Z,58.69
2022-09-23T09:05:36.308Z,58.69
2022-09-23T09:06:50.141Z,58.69
2022-09-23T09:07:38.227Z,58.69
2022-09-23T09:08:36.336Z,58.69
2022-09-23T09:09:36.251Z,58.69
2022-09-23T09:10:36.240Z,58.69
2022-09-23T09:11:36.225Z,58.69
2022-09-23T09:12:36.214Z,58.69
2022-09-23T09:13:36.199Z,58.79
2022-09-23T09:14:36.197Z,58.79
2022-09-23T09:15:36.229Z,58.79
2022-09-23T09:16:58.446Z,58.69
2022-09-23T09:17:37.187Z,58.69
2022-09-23T09:18:36.137Z,58.59
2022-09-23T09:19:36.122Z,58.59
2022-09-23T09:20:36.111Z,58.59
2022-09-23T09:21:36.095Z,58.59
2022-09-23T09:23:36.068Z,58.59
2022-09-23T09:24:36.095Z,58.59
2022-09-23T09:25:36.042Z,58.69
2022-09-23T09:26:36.030Z,58.69
2022-09-23T09:27:36.015Z,58.69
2022-09-23T09:28:36.011Z,58.69
2022-09-23T09:29:36.630Z,58.69
2022-09-23T09:30:36.152Z,58.59
2022-09-23T09:31:36.059Z,58.59
2022-09-23T09:32:35.973Z,58.59
2022-09-23T09:33:35.936Z,58.59
2022-09-23T09:34:35.925Z,58.59
2022-09-23T09:35:35.911Z,58.48
2022-09-23T09:36:35.902Z,58.48
2022-09-23T09:37:35.914Z,58.48
2022-09-23T09:38:35.875Z,58.48
2022-09-23T09:39:35.858Z,58.48
2022-09-23T09:40:35.957Z,58.59
2022-09-23T09:41:35.833Z,58.59
2022-09-23T09:42:35.819Z,58.59
2022-09-23T09:43:35.809Z,58.59
2022-09-23T09:44:37.099Z,58.59
2022-09-23T09:45:35.782Z,58.59
2022-09-23T09:46:35.863Z,58.59
2022-09-23T09:47:35.755Z,58.59
2022-09-23T09:48:35.741Z,58.69
2022-09-23T09:49:40.285Z,58.59
2022-09-23T09:50:35.714Z,58.59
2022-09-23T09:51:35.701Z,58.59
2022-09-23T09:52:37.711Z,58.59
2022-09-23T09:53:35.629Z,58.59
2022-09-23T09:54:35.609Z,58.48
2022-09-23T09:55:35.592Z,58.48
2022-09-23T09:56:35.683Z,58.48
2022-09-23T09:57:36.218Z,58.48
2022-09-23T09:58:35.557Z,58.48
2022-09-23T09:59:35.540Z,58.48
2022-09-23T10:00:35.531Z,58.39
2022-09-23T10:01:35.583Z,58.28
2022-09-23T10:02:35.500Z,58.39
2022-09-23T10:03:35.486Z,58.39
2022-09-23T10:04:35.594Z,58.39
2022-09-23T10:05:35.458Z,58.39
2022-09-23T10:06:35.447Z,58.28
2022-09-23T10:07:35.432Z,58.28
2022-09-23T10:08:35.420Z,58.28
2022-09-23T10:09:35.404Z,58.28
2022-09-23T10:10:35.394Z,58.18
2022-09-23T10:11:35.379Z,58.18
2022-09-23T10:12:35.395Z,58.08
2022-09-23T10:13:35.351Z,58.05
2022-09-23T10:14:35.340Z,58.05
2022-09-23T10:15:35.324Z,58.05
2022-09-23T10:16:35.354Z,57.95
2022-09-23T10:17:35.302Z,57.95
2022-09-23T10:18:35.287Z,57.95
2022-09-23T10:19:35.272Z,57.95
2022-09-23T10:20:35.261Z,57.95
2022-09-23T10:21:35.245Z,57.95
2022-09-23T10:22:35.235Z,57.95
2022-09-23T10:23:35.219Z,57.98
2022-09-23T10:24:35.209Z,57.95
2022-09-23T10:25:35.196Z,57.85
2022-09-23T10:26:35.185Z,57.85
2022-09-23T10:27:35.186Z,57.95
2022-09-23T10:28:35.232Z,58.05
2022-09-23T10:29:35.144Z,57.75
2022-09-23T10:30:35.202Z,57.75
2022-09-23T10:31:35.117Z,57.65
2022-09-23T10:32:35.107Z,57.65
2022-09-23T10:33:35.093Z,57.55
2022-09-23T10:34:35.080Z,57.34
2022-09-23T10:35:35.065Z,57.24
2022-09-23T10:36:35.055Z,57.24
2022-09-23T10:37:35.046Z,57.24
2022-09-23T10:38:35.047Z,57.24
2022-09-23T10:39:35.015Z,57.14
2022-09-23T10:40:35.099Z,57.24
2022-09-23T10:41:34.992Z,57.14
2022-09-23T10:42:34.980Z,57.14
2022-09-23T10:43:34.965Z,57.14
2022-09-23T10:44:34.978Z,57.04
2022-09-23T10:45:38.482Z,57.04
2022-09-23T10:46:43.004Z,57.04
2022-09-23T10:47:34.915Z,57.04
2022-09-23T10:48:34.903Z,57.04
2022-09-23T10:49:34.890Z,57.04
2022-09-23T10:50:34.880Z,57.14
2022-09-23T10:51:34.866Z,57.14
2022-09-23T10:52:34.853Z,57.14
2022-09-23T10:53:34.842Z,57.14
2022-09-23T10:54:34.831Z,57.14
2022-09-23T10:55:34.814Z,57.04
2022-09-23T10:56:34.803Z,57.24
2022-09-23T10:57:34.789Z,57.14
2022-09-23T10:58:34.778Z,56.84
2022-09-23T10:59:34.764Z,56.43
2022-09-23T11:00:34.777Z,56.73
2022-09-23T11:01:34.833Z,56.94
2022-09-23T11:02:34.728Z,57.04
2022-09-23T11:03:34.717Z,57.14
2022-09-23T11:04:34.778Z,57.04
2022-09-23T11:05:34.687Z,57.04
2022-09-23T11:06:34.682Z,57.14
2022-09-23T11:07:37.113Z,57.14
2022-09-23T11:08:34.650Z,57.14
2022-09-23T11:09:34.636Z,57.14
2022-09-23T11:10:48.396Z,57.14
2022-09-23T11:11:35.649Z,57.14
2022-09-23T11:12:34.600Z,57.04
2022-09-23T11:13:34.585Z,57.14
2022-09-23T11:14:34.574Z,57.04
2022-09-23T11:15:34.560Z,57.04
2022-09-23T11:16:34.676Z,56.94
2022-09-23T11:17:34.535Z,56.94
2022-09-23T11:18:34.522Z,56.84
2022-09-23T11:19:34.512Z,56.84
2022-09-23T11:20:34.498Z,56.84
2022-09-23T11:21:34.486Z,56.84
2022-09-23T11:22:34.474Z,56.73
2022-09-23T11:23:34.461Z,56.73
2022-09-23T11:24:34.445Z,56.84
2022-09-23T11:25:34.431Z,56.73
2022-09-23T11:26:34.423Z,56.73
2022-09-23T11:27:34.406Z,56.84
2022-09-23T11:28:34.395Z,56.73
2022-09-23T11:29:34.380Z,56.64
2022-09-23T11:30:34.413Z,56.53
2022-09-23T11:31:34.354Z,56.53
2022-09-23T11:32:34.378Z,56.53
2022-09-23T11:33:34.327Z,56.43
2022-09-23T11:34:34.316Z,56.40
2022-09-23T11:35:34.304Z,56.33
2022-09-23T11:36:34.290Z,56.31
2022-09-23T11:37:34.276Z,56.31
2022-09-23T11:38:34.266Z,56.31
2022-09-23T11:39:34.252Z,56.20
2022-09-23T11:40:34.373Z,56.31
2022-09-23T11:41:34.224Z,56.20
2022-09-23T11:42:34.213Z,56.20
2022-09-23T11:43:34.198Z,56.20
2022-09-23T11:44:34.190Z,56.20
2022-09-23T11:45:34.222Z,56.20
2022-09-23T11:46:34.163Z,56.20
2022-09-23T11:47:38.958Z,56.20
2022-09-23T11:48:34.250Z,56.20
2022-09-23T11:49:34.123Z,56.10
2022-09-23T11:50:34.116Z,56.20
2022-09-23T11:51:34.094Z,56.20
2022-09-23T11:52:34.085Z,56.10
2022-09-23T11:53:34.069Z,56.10
2022-09-23T11:54:34.058Z,56.10
2022-09-23T11:55:34.044Z,56.10
2022-09-23T11:56:36.294Z,56.10
2022-09-23T11:57:44.464Z,56.10
2022-09-23T11:58:35.103Z,56.10
2022-09-23T11:59:39.981Z,56.00
2022-09-23T12:00:35.019Z,56.00
2022-09-23T12:01:37.696Z,56.10
2022-09-23T12:02:34.097Z,56.00
2022-09-23T12:03:43.131Z,56.00
2022-09-23T12:04:36.046Z,55.90
2022-09-23T12:05:34.050Z,55.90
2022-09-23T12:06:33.903Z,55.90
2022-09-23T12:07:33.888Z,55.90
2022-09-23T12:08:33.875Z,55.90
2022-09-23T12:09:56.626Z,55.90
2022-09-23T12:10:34.888Z,55.90
2022-09-23T12:11:33.837Z,55.59
2022-09-23T12:12:33.825Z,55.70
2022-09-23T12:13:33.809Z,55.80
2022-09-23T12:14:33.799Z,55.80
2022-09-23T12:15:33.784Z,55.70
2022-09-23T12:16:33.845Z,55.70
2022-09-23T12:17:33.756Z,55.70
2022-09-23T12:18:33.744Z,55.80
2022-09-23T12:19:33.731Z,55.80
2022-09-23T12:20:33.742Z,55.80
2022-09-23T12:21:49.703Z,55.80
2022-09-23T12:22:34.731Z,55.80
2022-09-23T12:23:33.678Z,55.80
2022-09-23T12:24:33.671Z,55.80
2022-09-23T12:25:33.651Z,55.80
2022-09-23T12:26:33.641Z,55.70
2022-09-23T12:27:33.625Z,55.70
2022-09-23T12:28:33.613Z,55.59
2022-09-23T12:29:33.601Z,55.70
2022-09-23T12:30:33.689Z,55.59
2022-09-23T12:31:36.055Z,55.70
2022-09-23T12:32:34.599Z,55.59
2022-09-23T12:33:33.547Z,55.59
2022-09-23T12:34:33.535Z,55.59
2022-09-23T12:35:33.522Z,55.59
2022-09-23T12:36:33.558Z,55.29
2022-09-23T12:37:33.497Z,55.39
2022-09-23T12:38:33.484Z,55.29
2022-09-23T12:39:33.472Z,55.49
2022-09-23T12:40:33.607Z,55.39
2022-09-23T12:41:33.443Z,55.39
2022-09-23T12:42:33.432Z,55.39
2022-09-23T12:43:33.417Z,55.39
2022-09-23T12:44:33.406Z,55.49
2022-09-23T12:45:33.419Z,55.49
2022-09-23T12:46:33.389Z,55.49
2022-09-23T12:47:33.365Z,55.39
2022-09-23T12:48:33.357Z,55.39
2022-09-23T12:49:33.339Z,55.39
2022-09-23T12:50:33.327Z,55.39
2022-09-23T12:51:33.313Z,55.39
2022-09-23T12:52:33.326Z,55.29
2022-09-23T12:53:33.291Z,55.29